createdAt,value
2022-09-04T00:00:29.055Z,76.25
2022-09-04T00:01:35.685Z,77.68
2022-09-04T00:02:53.483Z,78.43
2022-09-04T00:03:57.328Z,79.85
2022-09-04T00:05:10.199Z,80.95
2022-09-04T00:06:14.282Z,81.98
2022-09-04T00:07:33.404Z,81.90
2022-09-04T00:08:37.107Z,81.34
2022-09-04T00:09:49.853Z,81.20
2022-09-04T00:11:08.695Z,82.19
2022-09-04T00:12:12.470Z,82.16
2022-09-04T00:13:16.172Z,81.13
2022-09-04T00:14:19.888Z,81.36
2022-09-04T00:15:23.637Z,81.35
2022-09-04T00:16:27.438Z,81.12
2022-09-04T00:17:31.384Z,81.37
2022-09-04T00:18:41.190Z,81.75
2022-09-04T00:19:44.985Z,81.85
2022-09-04T00:20:51.812Z,81.79
2022-09-04T00:21:55.682Z,81.51
2022-09-04T00:22:59.488Z,81.24
2022-09-04T00:24:06.392Z,80.42
2022-09-04T00:25:10.132Z,79.79
2022-09-04T00:26:20.976Z,78.25
2022-09-04T00:27:24.971Z,77.12
2022-09-04T00:28:37.578Z,76.71
2022-09-04T00:29:44.292Z,76.67
2022-09-04T00:30:48.074Z,76.82
2022-09-04T00:31:51.843Z,76.70
2022-09-04T00:33:01.403Z,76.67
2022-09-04T00:34:21.703Z,76.75
2022-09-04T00:35:28.218Z,76.59
2022-09-04T00:36:30.759Z,77.22
2022-09-04T00:37:34.510Z,77.11
2022-09-04T00:38:53.437Z,78.40
2022-09-04T00:40:00.042Z,80.21
2022-09-04T00:41:10.098Z,80.88
2022-09-04T00:42:32.703Z,80.79
2022-09-04T00:43:36.443Z,81.35
2022-09-04T00:44:46.180Z,81.42
2022-09-04T00:46:06.723Z,80.84
2022-09-04T00:47:28.967Z,80.57
2022-09-04T00:48:32.695Z,80.96
2022-09-04T00:49:53.031Z,81.26
2022-09-04T00:51:13.710Z,81.97
2022-09-04T00:52:37.013Z,82.09
2022-09-04T00:53:56.580Z,82.37
2022-09-04T00:55:06.547Z,82.87
2022-09-04T00:56:13.019Z,82.90
2022-09-04T00:57:33.328Z,82.80
2022-09-04T00:58:52.434Z,82.49
2022-09-04T00:59:56.162Z,82.52
2022-09-04T01:00:59.018Z,82.25
2022-09-04T01:02:03.364Z,82.01
2022-09-04T01:03:24.062Z,81.35
2022-09-04T01:04:32.335Z,80.43
2022-09-04T01:05:36.091Z,80.31
2022-09-04T01:06:40.302Z,80.08
2022-09-04T01:07:46.912Z,79.94
2022-09-04T01:08:56.402Z,79.54
2022-09-04T01:09:59.187Z,79.25
2022-09-04T01:11:03.065Z,78.66
2022-09-04T01:12:13.063Z,78.87
2022-09-04T01:13:16.923Z,79.09
2022-09-04T01:14:23.554Z,78.73
2022-09-04T01:15:33.036Z,78.95
2022-09-04T01:16:40.072Z,79.54
2022-09-04T01:17:55.812Z,78.87
2022-09-04T01:19:11.620Z,78.51
2022-09-04T01:20:21.767Z,78.92
2022-09-04T01:21:25.482Z,79.18
2022-09-04T01:22:32.046Z,80.53
2022-09-04T01:23:48.283Z,79.97
2022-09-04T01:25:04.060Z,80.58
2022-09-04T01:26:07.874Z,81.78
2022-09-04T01:27:24.038Z,81.91
2022-09-04T01:28:36.944Z,81.20
2022-09-04T01:29:57.533Z,81.04
2022-09-04T01:31:10.426Z,79.99
2022-09-04T01:32:26.215Z,80.09
2022-09-04T01:33:35.970Z,79.92
2022-09-04T01:34:42.523Z,80.11
2022-09-04T01:35:52.306Z,80.27
2022-09-04T01:37:08.352Z,79.93
2022-09-04T01:38:28.755Z,79.79
2022-09-04T01:39:32.697Z,79.82
2022-09-04T01:40:45.553Z,80.20
2022-09-04T01:42:01.707Z,80.13
2022-09-04T01:43:05.517Z,80.15
2022-09-04T01:44:08.268Z,80.17
2022-09-04T01:45:10.616Z,79.81
2022-09-04T01:46:14.334Z,80.30
2022-09-04T01:47:18.032Z,80.61
2022-09-04T01:48:21.850Z,80.87
2022-09-04T01:49:37.356Z,80.86
2022-09-04T01:50:41.135Z,80.26
2022-09-04T01:51:50.900Z,80.93
2022-09-04T01:52:54.621Z,80.60
2022-09-04T01:53:58.323Z,80.42
2022-09-04T01:55:08.359Z,79.99
2022-09-04T01:56:21.402Z,79.54
2022-09-04T01:57:41.897Z,79.60
2022-09-04T01:58:57.965Z,79.49
2022-09-04T02:00:07.724Z,78.90
2022-09-04T02:01:14.507Z,79.06
2022-09-04T02:02:32.423Z,79.38
2022-09-04T02:03:48.422Z,79.74
2022-09-04T02:05:08.580Z,79.50
2022-09-04T02:06:29.352Z,79.54
2022-09-04T02:07:33.052Z,79.44
2022-09-04T02:08:36.837Z,79.75
2022-09-04T02:09:46.957Z,79.91
2022-09-04T02:10:53.427Z,80.16
2022-09-04T02:12:00.179Z,80.51
2022-09-04T02:13:06.667Z,80.78
2022-09-04T02:14:10.488Z,80.56
2022-09-04T02:15:14.214Z,80.57
2022-09-04T02:16:21.751Z,80.71
2022-09-04T02:17:25.511Z,81.06
2022-09-04T02:18:29.307Z,81.24
2022-09-04T02:19:33.006Z,81.20
2022-09-04T02:20:34.850Z,81.37
2022-09-04T02:21:38.658Z,81.04
2022-09-04T02:23:00.392Z,80.99
2022-09-04T02:24:21.055Z,81.12
2022-09-04T02:25:39.867Z,81.26
2022-09-04T02:26:43.734Z,81.29
2022-09-04T02:27:47.440Z,81.67
2022-09-04T02:28:51.155Z,81.37
2022-09-04T02:29:54.927Z,81.47
2022-09-04T02:31:14.101Z,81.28
2022-09-04T02:32:20.575Z,81.24
2022-09-04T02:33:24.275Z,81.11
2022-09-04T02:34:34.256Z,81.75
2022-09-04T02:35:37.998Z,81.79
2022-09-04T02:36:44.497Z,81.39
2022-09-04T02:37:51.230Z,80.55
2022-09-04T02:39:04.175Z,80.50
2022-09-04T02:40:14.106Z,80.56
2022-09-04T02:41:34.907Z,80.01
2022-09-04T02:42:44.857Z,79.77
2022-09-04T02:44:05.660Z,80.32
2022-09-04T02:45:12.538Z,82.29
2022-09-04T02:46:16.457Z,82.62
2022-09-04T02:47:37.060Z,83.45
2022-09-04T02:48:50.174Z,84.20
2022-09-04T02:49:56.804Z,84.90
2022-09-04T02:51:00.503Z,85.37
2022-09-04T02:52:16.283Z,85.50
2022-09-04T02:53:36.720Z,85.78
2022-09-04T02:54:57.352Z,86.04
2022-09-04T02:56:18.016Z,86.06
2022-09-04T02:57:21.747Z,86.04
2022-09-04T02:58:28.436Z,86.88
2022-09-04T02:59:32.280Z,86.76
2022-09-04T03:00:51.465Z,87.04
2022-09-04T03:01:55.445Z,87.02
2022-09-04T03:03:13.663Z,87.17
2022-09-04T03:04:17.604Z,87.68
2022-09-04T03:05:24.339Z,87.90
2022-09-04T03:06:45.001Z,88.07
2022-09-04T03:07:54.988Z,88.56
2022-09-04T03:08:58.753Z,88.82
2022-09-04T03:10:08.247Z,89.05
2022-09-04T03:11:17.938Z,89.53
2022-09-04T03:12:38.476Z,89.69
2022-09-04T03:13:42.310Z,89.38
2022-09-04T03:14:46.021Z,88.61
2022-09-04T03:16:05.186Z,88.60
2022-09-04T03:17:28.804Z,88.68
2022-09-04T03:18:35.498Z,88.31
2022-09-04T03:19:45.286Z,89.21
2022-09-04T03:20:52.697Z,89.42
2022-09-04T03:21:56.509Z,88.90
2022-09-04T03:23:17.197Z,88.89
2022-09-04T03:24:27.119Z,88.75
2022-09-04T03:25:47.225Z,88.83
2022-09-04T03:26:51.095Z,88.79
2022-09-04T03:27:53.180Z,88.90
2022-09-04T03:29:08.747Z,89.18
2022-09-04T03:30:12.205Z,89.03
2022-09-04T03:31:31.028Z,88.95
2022-09-04T03:32:34.817Z,89.01
2022-09-04T03:33:38.571Z,89.30
2022-09-04T03:34:57.483Z,89.08
2022-09-04T03:36:04.359Z,89.15
2022-09-04T03:37:13.847Z,89.03
2022-09-04T03:38:20.786Z,88.74
2022-09-04T03:39:24.687Z,88.65
2022-09-04T03:40:37.488Z,88.68
2022-09-04T03:41:41.360Z,88.84
2022-09-04T03:42:45.199Z,89.28
2022-09-04T03:43:51.927Z,89.69
2022-09-04T03:44:55.624Z,89.72
2022-09-04T03:46:11.725Z,89.87
2022-09-04T03:47:21.371Z,90.01
2022-09-04T03:48:25.265Z,89.84
2022-09-04T03:49:41.191Z,89.88
2022-09-04T03:50:45.019Z,90.13
2022-09-04T03:51:51.709Z,89.68
2022-09-04T03:52:55.446Z,89.78
2022-09-04T03:53:59.160Z,89.65
2022-09-04T03:55:21.155Z,89.58
2022-09-04T03:56:24.987Z,89.14
2022-09-04T03:57:34.707Z,88.63
2022-09-04T03:58:47.360Z,88.32
2022-09-04T03:59:53.972Z,87.98
2022-09-04T04:00:57.884Z,87.77
2022-09-04T04:02:07.801Z,87.64
2022-09-04T04:03:15.705Z,87.42
2022-09-04T04:04:19.540Z,87.10
2022-09-04T04:05:26.359Z,86.73
2022-09-04T04:06:46.804Z,86.56
2022-09-04T04:07:53.092Z,86.43
2022-09-04T04:09:06.222Z,86.30
2022-09-04T04:10:12.875Z,86.20
2022-09-04T04:11:22.949Z,86.12
2022-09-04T04:12:35.509Z,86.00
2022-09-04T04:13:54.290Z,85.64
2022-09-04T04:14:57.995Z,85.55
2022-09-04T04:16:04.610Z,85.35
2022-09-04T04:17:08.525Z,85.24
2022-09-04T04:18:14.199Z,85.03
2022-09-04T04:19:34.768Z,84.98
2022-09-04T04:20:55.245Z,85.13
2022-09-04T04:22:05.296Z,84.94
2022-09-04T04:23:12.028Z,84.75
2022-09-04T04:24:24.809Z,84.82
2022-09-04T04:25:34.697Z,84.69
2022-09-04T04:26:38.519Z,84.83
2022-09-04T04:28:00.836Z,84.45
2022-09-04T04:29:21.565Z,84.33
2022-09-04T04:30:27.076Z,83.66
2022-09-04T04:31:43.123Z,82.92
2022-09-04T04:33:04.935Z,82.17
2022-09-04T04:34:08.794Z,81.52
2022-09-04T04:35:12.483Z,81.33
2022-09-04T04:36:33.259Z,81.43
2022-09-04T04:37:46.220Z,81.10
2022-09-04T04:38:59.155Z,80.94
2022-09-04T04:40:09.098Z,81.28
2022-09-04T04:41:15.636Z,81.07
2022-09-04T04:42:25.347Z,81.56
2022-09-04T04:43:32.209Z,81.46
2022-09-04T04:44:35.933Z,80.51
2022-09-04T04:45:43.337Z,79.89
2022-09-04T04:46:50.163Z,79.39
2022-09-04T04:47:54.065Z,79.15
2022-09-04T04:49:14.704Z,79.09
2022-09-04T04:50:34.075Z,78.83
2022-09-04T04:51:44.122Z,78.57
2022-09-04T04:52:56.863Z,78.32
2022-09-04T04:54:10.047Z,78.34
2022-09-04T04:55:26.095Z,78.51
2022-09-04T04:56:33.205Z,78.38
2022-09-04T04:57:39.922Z,78.54
2022-09-04T04:59:00.634Z,78.50
2022-09-04T05:00:07.845Z,77.90
2022-09-04T05:01:14.406Z,77.63
2022-09-04T05:02:30.867Z,77.64
2022-09-04T05:03:34.851Z,77.23
2022-09-04T05:04:57.077Z,76.91
2022-09-04T05:06:06.786Z,76.50
2022-09-04T05:07:13.582Z,76.27
2022-09-04T05:08:17.295Z,75.77
2022-09-04T05:09:23.773Z,75.39
2022-09-04T05:10:30.512Z,74.67
2022-09-04T05:11:52.017Z,73.88
2022-09-04T05:13:12.325Z,73.41
2022-09-04T05:14:25.387Z,73.32
2022-09-04T05:15:29.129Z,72.45
2022-09-04T05:16:41.942Z,71.29
2022-09-04T05:17:45.630Z,70.26
2022-09-04T05:18:49.465Z,69.78
2022-09-04T05:19:53.309Z,68.70
2022-09-04T05:20:57.114Z,68.54
2022-09-04T05:22:01.025Z,68.26
2022-09-04T05:23:19.845Z,67.33
2022-09-04T05:24:28.494Z,66.73
2022-09-04T05:25:44.293Z,65.36
2022-09-04T05:26:48.035Z,65.36
2022-09-04T05:28:08.438Z,64.47
2022-09-04T05:29:15.278Z,63.62
2022-09-04T05:30:24.891Z,63.13
2022-09-04T05:31:31.481Z,62.80
2022-09-04T05:32:38.593Z,63.02
2022-09-04T05:33:57.476Z,62.92
2022-09-04T05:35:01.272Z,61.83
2022-09-04T05:36:14.097Z,60.75
2022-09-04T05:37:17.802Z,60.72
2022-09-04T05:38:24.451Z,60.41
2022-09-04T05:39:44.567Z,58.74
2022-09-04T05:40:51.327Z,58.62
2022-09-04T05:41:55.156Z,59.05
2022-09-04T05:43:05.048Z,58.03
2022-09-04T05:44:17.834Z,56.67
2022-09-04T05:45:24.640Z,55.33
2022-09-04T05:46:31.880Z,54.89
2022-09-04T05:47:52.675Z,54.04
2022-09-04T05:49:11.597Z,54.94
2022-09-04T05:50:32.037Z,53.51
2022-09-04T05:51:48.082Z,53.73
2022-09-04T05:52:54.993Z,53.19
2022-09-04T05:54:04.763Z,52.72
2022-09-04T05:55:23.520Z,52.59
2022-09-04T05:56:33.212Z,52.29
2022-09-04T05:57:36.929Z,51.28
2022-09-04T05:58:43.404Z,51.15
2022-09-04T05:59:53.024Z,50.36
2022-09-04T06:00:56.713Z,50.69
2022-09-04T06:02:03.630Z,51.06
2022-09-04T06:03:24.360Z,50.82
2022-09-04T06:04:31.098Z,50.33
2022-09-04T06:05:34.810Z,50.25
2022-09-04T06:06:41.538Z,50.69
2022-09-04T06:07:45.246Z,51.18
2022-09-04T06:08:49.058Z,50.86
2022-09-04T06:10:09.564Z,50.58
2022-09-04T06:11:29.911Z,50.48
2022-09-04T06:12:36.660Z,50.72
2022-09-04T06:13:57.316Z,50.41
2022-09-04T06:15:04.381Z,49.43
2022-09-04T06:16:20.314Z,49.05
2022-09-04T06:17:29.989Z,48.78
2022-09-04T06:18:42.871Z,48.50
2022-09-04T06:19:46.745Z,48.95
2022-09-04T06:20:53.854Z,48.21
2022-09-04T06:22:03.541Z,47.51
2022-09-04T06:23:10.557Z,47.62
2022-09-04T06:24:17.220Z,46.70
2022-09-04T06:25:21.069Z,46.38
2022-09-04T06:26:26.554Z,46.28
2022-09-04T06:27:35.468Z,46.01
2022-09-04T06:28:42.113Z,46.17
2022-09-04T06:29:58.021Z,45.68
2022-09-04T06:31:08.237Z,45.76
2022-09-04T06:32:30.846Z,45.40
2022-09-04T06:33:43.627Z,45.32
2022-09-04T06:34:50.377Z,45.10
2022-09-04T06:35:54.063Z,44.48
2022-09-04T06:37:14.522Z,44.36
2022-09-04T06:38:35.160Z,44.22
2022-09-04T06:39:41.834Z,44.01
2022-09-04T06:40:48.719Z,43.43
2022-09-04T06:41:55.517Z,43.31
2022-09-04T06:43:05.238Z,42.88
2022-09-04T06:44:27.475Z,43.08
2022-09-04T06:45:46.506Z,43.57
2022-09-04T06:46:56.101Z,42.82
2022-09-04T06:48:12.042Z,42.83
2022-09-04T06:49:18.468Z,41.70
2022-09-04T06:50:25.325Z,41.45
2022-09-04T06:51:35.666Z,41.89
2022-09-04T06:52:42.253Z,41.62
2022-09-04T06:53:46.117Z,42.58
2022-09-04T06:55:02.473Z,43.31
2022-09-04T06:56:15.520Z,42.63
2022-09-04T06:57:37.049Z,42.83
2022-09-04T06:58:40.923Z,42.39
2022-09-04T06:59:56.660Z,42.30
2022-09-04T07:01:03.129Z,42.21
2022-09-04T07:02:16.090Z,42.15
2022-09-04T07:03:19.940Z,41.73
2022-09-04T07:04:23.657Z,42.38
2022-09-04T07:05:30.507Z,43.16
2022-09-04T07:06:43.595Z,42.69
2022-09-04T07:07:56.625Z,42.69
2022-09-04T07:09:00.452Z,42.04
2022-09-04T07:10:07.232Z,41.52
2022-09-04T07:11:09.846Z,41.49
2022-09-04T07:12:29.123Z,40.94
2022-09-04T07:13:49.682Z,40.64
2022-09-04T07:15:10.177Z,41.21
2022-09-04T07:16:14.184Z,40.65
2022-09-04T07:17:34.893Z,40.06
2022-09-04T07:18:41.114Z,40.12
2022-09-04T07:19:44.923Z,39.60
2022-09-04T07:21:05.643Z,39.83
2022-09-04T07:22:20.144Z,40.15
2022-09-04T07:23:23.962Z,39.81
2022-09-04T07:24:30.523Z,39.90
2022-09-04T07:25:34.292Z,40.07
2022-09-04T07:26:38.168Z,40.03
2022-09-04T07:27:50.812Z,39.85
2022-09-04T07:29:03.733Z,40.01
2022-09-04T07:30:10.338Z,39.58
2022-09-04T07:31:17.012Z,39.51
2022-09-04T07:32:24.100Z,39.49
2022-09-04T07:33:37.005Z,39.10
2022-09-04T07:34:57.698Z,39.11
2022-09-04T07:36:01.500Z,39.36
2022-09-04T07:37:22.587Z,39.77
2022-09-04T07:38:43.196Z,39.55
2022-09-04T07:39:51.780Z,39.48
2022-09-04T07:40:58.571Z,39.50
2022-09-04T07:42:08.342Z,39.12
2022-09-04T07:43:21.153Z,39.62
2022-09-04T07:44:24.883Z,39.67
2022-09-04T07:45:37.349Z,39.87
2022-09-04T07:46:44.456Z,39.37
2022-09-04T07:47:48.387Z,39.41
2022-09-04T07:49:04.122Z,38.87
2022-09-04T07:50:10.717Z,38.73
2022-09-04T07:51:15.802Z,39.07
2022-09-04T07:52:36.003Z,39.50
2022-09-04T07:53:55.061Z,39.67
2022-09-04T07:54:58.923Z,38.78
2022-09-04T07:56:02.684Z,38.34
2022-09-04T07:57:06.516Z,38.73
2022-09-04T07:58:10.254Z,38.76
2022-09-04T07:59:23.219Z,38.66
2022-09-04T08:00:25.999Z,38.71
2022-09-04T08:01:35.968Z,38.29
2022-09-04T08:02:47.662Z,38.37
2022-09-04T08:04:08.255Z,38.36
2022-09-04T08:05:28.919Z,38.23
2022-09-04T08:06:32.731Z,38.69
2022-09-04T08:07:39.235Z,38.70
2022-09-04T08:09:01.079Z,38.96
2022-09-04T08:10:04.928Z,38.81
2022-09-04T08:11:11.968Z,39.09
2022-09-04T08:12:27.652Z,39.19
2022-09-04T08:13:48.258Z,39.38
2022-09-04T08:14:51.971Z,39.22
2022-09-04T08:16:01.515Z,39.50
2022-09-04T08:17:20.311Z,38.24
2022-09-04T08:18:40.803Z,38.20
2022-09-04T08:19:50.484Z,38.02
2022-09-04T08:20:57.230Z,38.22
2022-09-04T08:21:59.484Z,38.96
2022-09-04T08:23:03.418Z,38.16
2022-09-04T08:24:22.236Z,37.69
2022-09-04T08:25:28.253Z,37.13
2022-09-04T08:26:32.703Z,36.89
2022-09-04T08:27:53.240Z,38.27
2022-09-04T08:28:57.116Z,37.83
2022-09-04T08:30:03.872Z,38.11
2022-09-04T08:31:10.631Z,37.82
2022-09-04T08:32:20.675Z,38.04
2022-09-04T08:33:24.406Z,37.84
2022-09-04T08:34:43.449Z,37.56
2022-09-04T08:36:03.886Z,37.32
2022-09-04T08:37:22.955Z,37.42
2022-09-04T08:38:35.745Z,38.00
2022-09-04T08:39:56.398Z,38.33
2022-09-04T08:41:06.093Z,39.11
2022-09-04T08:42:16.118Z,39.40
2022-09-04T08:43:28.938Z,39.25
2022-09-04T08:44:32.782Z,39.58
2022-09-04T08:45:42.746Z,39.73
2022-09-04T08:47:02.009Z,40.17
2022-09-04T08:48:15.028Z,40.76
2022-09-04T08:49:21.767Z,40.80
2022-09-04T08:50:42.136Z,40.51
2022-09-04T08:51:58.045Z,40.18
2022-09-04T08:53:18.312Z,40.12
2022-09-04T08:54:22.055Z,39.88
2022-09-04T08:55:35.147Z,40.23
2022-09-04T08:56:39.232Z,40.03
2022-09-04T08:57:49.073Z,39.54
2022-09-04T08:58:55.254Z,39.81
2022-09-04T09:00:04.745Z,39.45
2022-09-04T09:01:11.832Z,39.35
2022-09-04T09:02:15.624Z,39.22
2022-09-04T09:03:34.531Z,39.03
2022-09-04T09:04:38.344Z,38.47
2022-09-04T09:05:42.056Z,38.76
2022-09-04T09:06:48.815Z,38.59
2022-09-04T09:08:07.652Z,38.12
2022-09-04T09:09:28.675Z,38.35
2022-09-04T09:10:38.577Z,39.03
2022-09-04T09:11:57.459Z,38.96
2022-09-04T09:13:03.978Z,38.87
2022-09-04T09:14:12.844Z,38.51
2022-09-04T09:15:28.438Z,38.57
2022-09-04T09:16:32.305Z,39.15
2022-09-04T09:17:39.047Z,39.03
2022-09-04T09:18:42.860Z,38.66
2022-09-04T09:19:46.622Z,38.26
2022-09-04T09:21:06.965Z,38.26
2022-09-04T09:22:10.682Z,38.13
2022-09-04T09:23:18.251Z,38.50
2022-09-04T09:24:33.662Z,37.60
2022-09-04T09:25:40.974Z,37.70
2022-09-04T09:26:46.015Z,36.78
2022-09-04T09:28:06.218Z,37.00
2022-09-04T09:29:09.951Z,37.35
2022-09-04T09:30:20.898Z,37.43
2022-09-04T09:31:27.410Z,37.47
2022-09-04T09:32:37.272Z,37.80
2022-09-04T09:33:53.246Z,37.73
2022-09-04T09:34:58.290Z,37.42
2022-09-04T09:36:18.800Z,37.26
2022-09-04T09:37:22.530Z,37.40
2022-09-04T09:38:31.265Z,37.33
2022-09-04T09:39:47.419Z,37.52
2022-09-04T09:40:51.330Z,37.20
2022-09-04T09:42:15.131Z,37.07
2022-09-04T09:43:18.987Z,37.02
2022-09-04T09:44:25.714Z,37.10
2022-09-04T09:45:36.794Z,37.12
2022-09-04T09:46:49.624Z,37.16
2022-09-04T09:48:02.275Z,37.05
2022-09-04T09:49:21.289Z,36.72
2022-09-04T09:50:41.820Z,36.70
2022-09-04T09:52:02.500Z,36.54
2022-09-04T09:53:09.241Z,36.49
2022-09-04T09:54:28.140Z,36.04
2022-09-04T09:55:31.862Z,35.87
2022-09-04T09:56:54.076Z,35.98
2022-09-04T09:58:14.526Z,35.78
2022-09-04T09:59:34.791Z,35.25
2022-09-04T10:00:41.544Z,35.37
2022-09-04T10:01:51.956Z,36.50
2022-09-04T10:03:12.717Z,36.63
2022-09-04T10:04:28.555Z,36.92
2022-09-04T10:05:49.519Z,37.11
2022-09-04T10:07:11.492Z,37.13
2022-09-04T10:08:15.313Z,37.34
2022-09-04T10:09:35.702Z,37.30
2022-09-04T10:10:54.648Z,37.73
2022-09-04T10:12:13.545Z,38.50
2022-09-04T10:14:57.182Z,38.82
2022-09-04T10:16:04.228Z,38.43
2022-09-04T10:17:10.950Z,38.04
2022-09-04T10:18:23.743Z,38.72
2022-09-04T10:19:44.084Z,38.97
2022-09-04T10:20:53.989Z,38.59
2022-09-04T10:22:09.968Z,38.43
2022-09-04T10:23:30.844Z,38.03
2022-09-04T10:24:46.681Z,37.98
2022-09-04T10:26:07.186Z,37.48
2022-09-04T10:27:29.672Z,36.90
2022-09-04T10:28:39.553Z,36.71
2022-09-04T10:29:43.276Z,37.03
2022-09-04T10:31:05.255Z,36.81
2022-09-04T10:32:25.976Z,37.17
2022-09-04T10:33:32.550Z,37.63
2022-09-04T10:34:52.751Z,37.21
2022-09-04T10:35:59.498Z,36.89
2022-09-04T10:37:03.224Z,36.23
2022-09-04T10:38:13.243Z,35.79
2022-09-04T10:39:17.996Z,35.27
2022-09-04T10:40:25.253Z,34.93
2022-09-04T10:41:46.116Z,35.14
2022-09-04T10:43:06.747Z,35.45
2022-09-04T10:44:13.463Z,36.04
2022-09-04T10:45:17.193Z,36.26
2022-09-04T10:46:27.151Z,36.34
2022-09-04T10:47:30.867Z,36.59
2022-09-04T10:48:36.483Z,36.75
2022-09-04T10:49:56.889Z,37.10
2022-09-04T10:51:00.701Z,37.42
2022-09-04T10:52:13.350Z,37.38
2022-09-04T10:53:24.821Z,37.43
2022-09-04T10:54:39.233Z,37.44
2022-09-04T10:55:59.726Z,36.95
2022-09-04T10:57:06.480Z,37.01
2022-09-04T10:58:13.755Z,36.86
2022-09-04T10:59:32.739Z,36.76
2022-09-04T11:00:48.842Z,36.74
2022-09-04T11:01:52.721Z,36.50
2022-09-04T11:03:11.660Z,36.45
2022-09-04T11:04:27.639Z,36.31
2022-09-04T11:05:43.479Z,36.00
2022-09-04T11:06:50.507Z,35.61
2022-09-04T11:08:11.203Z,35.34
2022-09-04T11:09:31.797Z,34.70
2022-09-04T11:10:44.782Z,34.22
2022-09-04T11:12:05.299Z,34.59
2022-09-04T11:13:24.304Z,35.01
2022-09-04T11:14:28.075Z,35.30
2022-09-04T11:15:37.716Z,35.78
2022-09-04T11:16:58.367Z,36.16
2022-09-04T11:18:07.926Z,36.21
2022-09-04T11:19:28.584Z,35.65
2022-09-04T11:20:37.354Z,35.76
2022-09-04T11:21:41.105Z,35.46
2022-09-04T11:22:44.923Z,35.37
2022-09-04T11:24:05.183Z,34.96
2022-09-04T11:25:08.913Z,35.43
2022-09-04T11:26:12.770Z,35.46
2022-09-04T11:27:33.024Z,35.90
2022-09-04T11:28:51.869Z,35.75
2022-09-04T11:29:58.404Z,35.86
2022-09-04T11:31:02.099Z,35.69
2022-09-04T11:32:21.122Z,36.03
2022-09-04T11:33:41.707Z,36.25
2022-09-04T11:34:45.450Z,35.97
2022-09-04T11:35:58.162Z,36.19
2022-09-04T11:37:04.935Z,36.04
2022-09-04T11:38:14.751Z,35.62
2022-09-04T11:39:27.759Z,35.63
2022-09-04T11:40:31.535Z,35.42
2022-09-04T11:41:50.426Z,35.04
2022-09-04T11:42:54.265Z,34.94
2022-09-04T11:44:13.383Z,34.07
2022-09-04T11:45:32.288Z,33.95
2022-09-04T11:46:48.140Z,34.20
2022-09-04T11:48:04.022Z,33.87
2022-09-04T11:49:24.582Z,33.99
2022-09-04T11:50:28.351Z,33.64
2022-09-04T11:51:32.059Z,34.21
2022-09-04T11:52:38.670Z,33.90
2022-09-04T11:53:45.198Z,33.91
2022-09-04T11:54:51.689Z,34.42
2022-09-04T11:56:01.182Z,34.67
2022-09-04T11:57:17.095Z,35.02
2022-09-04T11:58:20.835Z,34.79
2022-09-04T11:59:41.482Z,35.07
2022-09-04T12:00:45.239Z,35.21
2022-09-04T12:02:05.599Z,35.54
2022-09-04T12:03:18.635Z,35.44
2022-09-04T12:04:31.566Z,35.74
2022-09-04T12:05:51.951Z,35.83
2022-09-04T12:07:02.285Z,35.76
2022-09-04T12:08:06.293Z,35.88
2022-09-04T12:09:22.152Z,35.95
2022-09-04T12:10:31.756Z,35.83
2022-09-04T12:11:47.596Z,35.91
2022-09-04T12:12:55.901Z,35.80
2022-09-04T12:14:16.661Z,35.59
2022-09-04T12:15:20.369Z,35.23
2022-09-04T12:16:30.789Z,35.09
2022-09-04T12:17:49.909Z,34.77
2022-09-04T12:19:05.801Z,34.42
2022-09-04T12:20:15.947Z,33.72
2022-09-04T12:21:25.681Z,33.61
2022-09-04T12:22:33.340Z,33.46
2022-09-04T12:23:37.262Z,33.70
2022-09-04T12:24:58.249Z,33.90
2022-09-04T12:26:04.970Z,34.01
2022-09-04T12:27:11.647Z,33.79
2022-09-04T12:28:32.134Z,33.68
2022-09-04T12:29:48.310Z,33.58
2022-09-04T12:31:08.898Z,34.09
2022-09-04T12:32:18.862Z,33.94
2022-09-04T12:33:37.629Z,33.84
2022-09-04T12:34:44.104Z,33.85
2022-09-04T12:35:59.997Z,33.90
2022-09-04T12:37:20.328Z,34.52
2022-09-04T12:38:24.032Z,35.17
2022-09-04T12:39:27.769Z,35.52
2022-09-04T12:40:31.062Z,35.01
2022-09-04T12:41:34.902Z,35.14
2022-09-04T12:42:38.724Z,35.33
2022-09-04T12:43:54.778Z,35.65
2022-09-04T12:45:07.778Z,35.77
2022-09-04T12:46:11.755Z,35.74
2022-09-04T12:47:15.523Z,35.67
2022-09-04T12:48:28.582Z,36.00
2022-09-04T12:49:50.701Z,36.05
2022-09-04T12:50:55.119Z,36.09
2022-09-04T12:52:13.984Z,36.47
2022-09-04T12:55:05.774Z,35.79
2022-09-04T12:56:09.811Z,35.99
2022-09-04T12:57:23.751Z,35.87
2022-09-04T12:58:27.392Z,35.73
2022-09-04T12:59:37.347Z,35.53
2022-09-04T13:00:49.743Z,35.55
2022-09-04T13:01:52.645Z,35.79
2022-09-04T13:03:02.723Z,35.44
2022-09-04T13:04:27.661Z,35.23
2022-09-04T13:05:31.772Z,35.26
2022-09-04T13:06:38.566Z,35.56
2022-09-04T13:07:42.356Z,35.67
2022-09-04T13:08:46.235Z,35.56
2022-09-04T13:09:56.014Z,35.63
2022-09-04T13:11:18.031Z,35.18
2022-09-04T13:12:38.609Z,34.86
2022-09-04T13:13:45.389Z,34.94
2022-09-04T13:14:51.859Z,34.67
2022-09-04T13:15:56.169Z,34.47
2022-09-04T13:17:06.234Z,34.82
2022-09-04T13:18:26.622Z,34.69
2022-09-04T13:19:30.551Z,34.50
2022-09-04T13:20:34.407Z,34.11
2022-09-04T13:21:38.149Z,33.47
2022-09-04T13:22:54.118Z,33.67
2022-09-04T13:24:02.518Z,33.93
2022-09-04T13:25:22.940Z,33.98
2022-09-04T13:26:35.695Z,33.90
2022-09-04T13:27:54.575Z,33.69
2022-09-04T13:29:04.421Z,33.91
2022-09-04T13:30:11.552Z,34.51
2022-09-04T13:31:20.601Z,34.93
2022-09-04T13:32:24.518Z,35.47
2022-09-04T13:33:28.271Z,35.67
2022-09-04T13:34:44.177Z,35.35
2022-09-04T13:35:57.140Z,35.30
2022-09-04T13:37:03.816Z,35.17
2022-09-04T13:38:23.067Z,35.29
2022-09-04T13:39:35.990Z,35.23
2022-09-04T13:40:42.773Z,35.12
2022-09-04T13:41:46.694Z,34.81
2022-09-04T13:43:07.154Z,34.89
2022-09-04T13:44:27.795Z,34.86
2022-09-04T13:45:31.610Z,34.83
2022-09-04T13:46:38.447Z,34.94
2022-09-04T13:47:42.384Z,35.00
2022-09-04T13:48:45.986Z,34.98
2022-09-04T13:49:50.777Z,35.04
2022-09-04T13:50:55.642Z,34.99
2022-09-04T13:52:02.481Z,35.16
2022-09-04T13:53:09.298Z,35.41
2022-09-04T13:54:13.049Z,35.48
2022-09-04T13:55:16.769Z,35.63
2022-09-04T13:57:31.834Z,35.51
2022-09-04T13:58:35.638Z,35.56
2022-09-04T13:59:37.932Z,35.58
2022-09-04T14:00:41.875Z,35.52
2022-09-04T14:01:45.618Z,35.41
2022-09-04T14:02:49.392Z,35.52
2022-09-04T14:03:53.083Z,35.74
2022-09-04T14:04:56.752Z,36.13
2022-09-04T14:05:59.399Z,36.15
2022-09-04T14:07:03.213Z,36.03
2022-09-04T14:08:06.914Z,36.05
2022-09-04T14:09:09.565Z,36.07
2022-09-04T14:10:16.154Z,36.27
2022-09-04T14:11:32.622Z,36.47
2022-09-04T14:12:54.167Z,36.65
2022-09-04T14:14:00.903Z,36.58
2022-09-04T14:15:06.255Z,36.18
2022-09-04T14:16:09.777Z,35.91
2022-09-04T14:17:11.757Z,36.31
2022-09-04T14:18:30.735Z,36.58
2022-09-04T14:19:49.588Z,36.20
2022-09-04T14:20:53.609Z,36.09
2022-09-04T14:22:15.457Z,36.11
2022-09-04T14:23:28.345Z,35.99
2022-09-04T14:24:38.656Z,36.17
2022-09-04T14:25:58.897Z,36.25
2022-09-04T14:27:05.600Z,36.39
2022-09-04T14:28:09.482Z,36.47
2022-09-04T14:29:16.135Z,36.52
2022-09-04T14:30:21.920Z,36.50
2022-09-04T14:31:28.797Z,36.51
2022-09-04T14:32:40.388Z,36.73
2022-09-04T14:33:45.180Z,36.69
2022-09-04T14:35:07.332Z,36.41
2022-09-04T14:36:11.113Z,36.56
2022-09-04T14:37:15.019Z,36.52
2022-09-04T14:38:21.901Z,36.45
2022-09-04T14:39:28.500Z,36.54
2022-09-04T14:40:35.054Z,36.52
2022-09-04T14:41:38.921Z,36.59
2022-09-04T14:42:43.644Z,36.21
2022-09-04T14:43:49.191Z,36.39
2022-09-04T14:45:09.708Z,36.52
2022-09-04T14:46:13.551Z,36.42
2022-09-04T14:47:20.438Z,36.21
2022-09-04T14:48:22.584Z,36.17
2022-09-04T14:49:25.760Z,36.29
2022-09-04T14:50:30.221Z,35.96
2022-09-04T14:51:37.155Z,35.78
2022-09-04T14:52:40.851Z,35.55
2022-09-04T14:53:47.703Z,35.47
2022-09-04T14:54:53.704Z,35.41
2022-09-04T14:56:00.456Z,35.36
2022-09-04T14:57:20.980Z,35.45
2022-09-04T14:58:27.788Z,35.25
2022-09-04T14:59:40.788Z,35.25
2022-09-04T15:00:56.735Z,35.16
2022-09-04T15:02:09.929Z,35.23
2022-09-04T15:03:17.317Z,35.27
2022-09-04T15:04:21.284Z,35.18
2022-09-04T15:05:30.821Z,34.91
2022-09-04T15:06:44.630Z,34.93
2022-09-04T15:07:43.280Z,34.85
2022-09-04T15:08:45.614Z,35.40
2022-09-04T15:09:49.154Z,35.56
2022-09-04T15:10:52.522Z,35.41